Time,TemperatureF,DewpointF,PressureIn,WindDirection,WindDirectionDegrees,WindSpeedMPH,WindSpeedGustMPH,Humidity,HourlyPrecipIn,Conditions,Clouds,dailyrainin,SoftwareType,DateUTC
2013-10-23 00:00:00,47.3,45.2,29.78,West,263,2.5,2.5,92,0.00,,CLR,0.00,VWS V14.01,2013-10-23 04:00:00,
2013-10-23 00:03:00,47.2,45.3,29.79,West,263,2.5,2.5,93,0.00,,CLR,0.00,VWS V14.01,2013-10-23 04:03:00,
2013-10-23 00:06:00,47.2,45.4,29.79,West,263,2.5,2.5,93,0.00,,CLR,0.00,VWS V14.01,2013-10-23 04:06:00,
2013-10-23 00:08:00,47.0,44.9,29.79,West,263,2.5,2.5,92,0.00,,CLR,0.00,VWS V14.01,2013-10-23 04:08:00,
2013-10-23 00:15:00,46.9,45.2,29.79,West,263,2.5,2.5,94,0.00,,CLR,0.00,VWS V14.01,2013-10-23 04:15:00,
2013-10-23 00:16:00,46.8,45.1,29.79,West,263,2.5,2.5,94,0.00,,CLR,0.00,VWS V14.01,2013-10-23 04:16:00,
2013-10-23 00:22:00,46.4,44.9,29.79,West,263,2.5,2.5,95,0.00,,CLR,0.00,VWS V14.01,2013-10-23 04:22:00,
2013-10-23 00:26:00,46.5,44.9,29.79,West,263,2.5,2.5,94,0.00,,CLR,0.00,VWS V14.01,2013-10-23 04:26:00,
2013-10-23 00:32:00,45.9,44.7,29.79,West,263,2.5,2.5,96,0.00,,CLR,0.00,VWS V14.01,2013-10-23 04:32:00,
2013-10-23 00:38:00,45.7,44.6,29.79,West,263,2.5,2.5,96,0.00,,CLR,0.00,VWS V14.01,2013-10-23 04:38:00,
2013-10-23 00:45:00,45.7,44.6,29.80,West,263,2.5,2.5,96,0.00,,CLR,0.00,VWS V14.01,2013-10-23 04:45:00,
2013-10-23 00:50:00,45.6,44.5,29.80,West,263,2.5,2.5,96,0.00,,CLR,0.00,VWS V14.01,2013-10-23 04:50:00,
2013-10-23 00:57:00,45.5,44.4,29.79,West,263,2.5,2.5,96,0.00,,CLR,0.00,VWS V14.01,2013-10-23 04:57:00,
2013-10-23 01:02:00,45.3,44.1,29.80,West,263,2.5,2.5,95,0.00,,CLR,0.00,VWS V14.01,2013-10-23 05:02:00,
2013-10-23 01:08:00,45.4,44.2,29.80,West,263,2.5,2.5,96,0.00,,CLR,0.00,VWS V14.01,2013-10-23 05:08:00,
2013-10-23 01:14:00,45.2,43.7,29.80,NNW,336,2.5,3.4,94,0.00,,CLR,0.00,VWS V14.01,2013-10-23 05:14:00,
2013-10-23 01:21:00,45.1,43.7,29.80,WSW,257,2.5,2.9,95,0.00,,CLR,0.00,VWS V14.01,2013-10-23 05:21:00,
2013-10-23 01:27:00,44.9,43.1,29.81,North,10,2.5,5.4,93,0.00,,CLR,0.00,VWS V14.01,2013-10-23 05:27:00,
2013-10-23 01:32:00,44.8,42.7,29.81,North,10,2.5,2.5,92,0.00,,CLR,0.00,VWS V14.01,2013-10-23 05:32:00,
2013-10-23 01:38:00,44.6,41.8,29.81,North,10,2.5,2.5,90,0.00,,CLR,0.00,VWS V14.01,2013-10-23 05:38:00,
2013-10-23 01:44:00,44.5,41.6,29.81,North,10,2.5,2.5,89,0.00,,CLR,0.00,VWS V14.01,2013-10-23 05:44:00,
2013-10-23 01:51:00,44.3,41.7,29.81,North,10,2.5,2.5,90,0.00,,CLR,0.00,VWS V14.01,2013-10-23 05:51:00,
2013-10-23 01:56:00,44.1,41.0,29.81,North,10,2.5,2.5,89,0.00,,CLR,0.00,VWS V14.01,2013-10-23 05:56:00,
2013-10-23 02:02:00,44.0,42.0,29.80,North,10,2.5,2.5,93,0.00,,CLR,0.00,VWS V14.01,2013-10-23 06:02:00,
2013-10-23 02:08:00,43.8,41.6,29.81,North,10,2.5,2.5,92,0.00,,CLR,0.00,VWS V14.01,2013-10-23 06:08:00,
2013-10-23 02:15:00,43.2,41.2,29.81,North,10,2.5,2.5,92,0.00,,CLR,0.00,VWS V14.01,2013-10-23 06:15:00,
2013-10-23 02:21:00,43.4,41.0,29.81,North,10,2.5,2.5,91,0.00,,CLR,0.00,VWS V14.01,2013-10-23 06:21:00,
2013-10-23 02:27:00,43.3,40.6,29.81,North,10,2.5,2.5,90,0.00,,CLR,0.00,VWS V14.01,2013-10-23 06:27:00,
2013-10-23 02:32:00,43.3,40.9,29.81,North,10,2.5,2.5,91,0.00,,CLR,0.00,VWS V14.01,2013-10-23 06:32:00,
2013-10-23 02:38:00,43.1,41.0,29.81,North,10,2.5,2.5,92,0.00,,CLR,0.00,VWS V14.01,2013-10-23 06:38:00,
2013-10-23 02:44:00,43.0,41.1,29.81,North,10,2.5,2.5,93,0.00,,CLR,0.00,VWS V14.01,2013-10-23 06:44:00,
2013-10-23 02:51:00,42.7,40.7,29.81,North,10,2.5,2.5,93,0.00,,CLR,0.00,VWS V14.01,2013-10-23 06:51:00,
2013-10-23 02:57:00,42.5,40.6,29.81,North,10,2.5,2.5,93,0.00,,CLR,0.00,VWS V14.01,2013-10-23 06:57:00,
2013-10-23 03:03:00,42.2,41.0,29.80,North,10,2.5,2.5,95,0.00,,CLR,0.00,VWS V14.01,2013-10-23 07:03:00,
2013-10-23 03:08:00,41.8,40.9,29.80,North,10,2.5,2.5,97,0.00,,CLR,0.00,VWS V14.01,2013-10-23 07:08:00,
2013-10-23 03:14:00,41.8,41.0,29.80,North,10,2.5,2.5,97,0.00,,CLR,0.00,VWS V14.01,2013-10-23 07:14:00,
2013-10-23 03:20:00,41.4,40.8,29.80,North,10,2.5,2.5,98,0.00,,CLR,0.00,VWS V14.01,2013-10-23 07:20:00,
2013-10-23 03:27:00,41.3,40.6,29.80,North,10,2.5,2.5,97,0.00,,CLR,0.00,VWS V14.01,2013-10-23 07:27:00,
2013-10-23 03:32:00,41.2,40.4,29.80,North,10,2.5,2.5,97,0.00,,CLR,0.00,VWS V14.01,2013-10-23 07:32:00,
2013-10-23 03:38:00,41.2,40.4,29.80,North,10,2.5,2.5,97,0.00,,CLR,0.00,VWS V14.01,2013-10-23 07:38:00,
2013-10-23 03:44:00,41.1,40.6,29.80,North,10,2.5,2.5,98,0.00,,CLR,0.00,VWS V14.01,2013-10-23 07:44:00,
2013-10-23 03:51:00,40.8,40.5,29.80,North,10,2.5,2.5,99,0.00,,CLR,0.00,VWS V14.01,2013-10-23 07:51:00,
2013-10-23 03:57:00,40.6,40.4,29.80,North,10,2.5,2.5,99,0.00,,CLR,0.00,VWS V14.01,2013-10-23 07:57:00,
2013-10-23 04:03:00,41.0,40.7,29.80,North,10,2.5,2.5,99,0.00,,CLR,0.00,VWS V14.01,2013-10-23 08:03:00,
2013-10-23 04:09:00,41.2,40.9,29.80,North,10,2.5,2.5,99,0.00,,CLR,0.00,VWS V14.01,2013-10-23 08:09:00,
2013-10-23 04:15:00,41.2,40.8,29.80,North,10,2.5,2.5,99,0.00,,CLR,0.00,VWS V14.01,2013-10-23 08:15:00,
2013-10-23 04:21:00,41.3,40.9,29.80,North,10,2.5,2.5,98,0.00,,CLR,0.00,VWS V14.01,2013-10-23 08:21:00,
2013-10-23 04:27:00,41.6,41.2,29.79,North,10,2.5,2.5,98,0.00,,CLR,0.00,VWS V14.01,2013-10-23 08:27:00,
2013-10-23 04:33:00,41.8,41.3,29.80,North,10,2.5,2.5,98,0.00,,CLR,0.00,VWS V14.01,2013-10-23 08:33:00,
2013-10-23 04:39:00,42.1,41.6,29.80,North,10,2.5,2.5,98,0.00,,CLR,0.00,VWS V14.01,2013-10-23 08:39:00,
2013-10-23 04:45:00,41.2,41.1,29.79,North,10,2.5,2.5,100,0.00,,CLR,0.00,VWS V14.01,2013-10-23 08:45:00,
2013-10-23 04:51:00,40.1,40.1,29.79,North,10,2.5,2.5,100,0.00,,CLR,0.00,VWS V14.01,2013-10-23 08:51:00,
2013-10-23 04:57:00,40.5,40.5,29.79,North,10,2.5,2.5,100,0.00,,CLR,0.00,VWS V14.01,2013-10-23 08:57:00,
2013-10-23 05:03:00,41.1,41.1,29.79,North,10,2.5,2.5,100,0.00,,SCT160,0.00,VWS V14.01,2013-10-23 09:03:00,
2013-10-23 05:09:00,41.6,41.2,29.79,North,10,2.5,2.5,98,0.00,,SCT160,0.00,VWS V14.01,2013-10-23 09:09:00,
2013-10-23 05:15:00,41.9,41.2,29.79,North,10,2.5,2.5,97,0.00,,SCT160,0.00,VWS V14.01,2013-10-23 09:15:00,
2013-10-23 05:21:00,41.8,41.2,29.79,North,10,2.5,2.5,98,0.00,,SCT160,0.00,VWS V14.01,2013-10-23 09:21:00,
2013-10-23 05:27:00,41.6,41.0,29.78,North,10,2.5,2.5,98,0.00,,SCT160,0.00,VWS V14.01,2013-10-23 09:27:00,
2013-10-23 05:33:00,41.5,40.9,29.78,North,10,2.5,2.5,98,0.00,,SCT160,0.00,VWS V14.01,2013-10-23 09:33:00,
2013-10-23 05:39:00,41.2,40.3,29.78,North,10,2.5,2.5,97,0.00,,SCT160,0.00,VWS V14.01,2013-10-23 09:39:00,
2013-10-23 05:45:00,41.1,40.5,29.77,North,10,2.5,2.5,98,0.00,,SCT160,0.00,VWS V14.01,2013-10-23 09:45:00,
2013-10-23 05:51:00,40.6,40.1,29.77,North,10,2.5,2.5,98,0.00,,SCT160,0.00,VWS V14.01,2013-10-23 09:51:00,
2013-10-23 05:57:00,40.3,39.6,29.78,North,10,2.5,2.5,97,0.00,,SCT160,0.00,VWS V14.01,2013-10-23 09:57:00,
2013-10-23 06:03:00,40.4,39.9,29.78,North,10,2.5,2.5,98,0.00,,OVC055,0.00,VWS V14.01,2013-10-23 10:03:00,
2013-10-23 06:09:00,40.4,39.8,29.78,North,10,2.5,2.5,98,0.00,,OVC055,0.00,VWS V14.01,2013-10-23 10:09:00,
2013-10-23 06:15:00,40.0,39.8,29.78,North,10,2.5,2.5,99,0.00,,OVC055,0.00,VWS V14.01,2013-10-23 10:15:00,
2013-10-23 06:21:00,39.8,39.7,29.77,North,10,2.5,2.5,100,0.00,,OVC055,0.00,VWS V14.01,2013-10-23 10:21:00,
2013-10-23 06:27:00,39.5,39.5,29.77,North,10,2.5,2.5,100,0.00,,OVC055,0.00,VWS V14.01,2013-10-23 10:27:00,
2013-10-23 06:33:00,39.5,39.5,29.77,North,10,2.5,2.5,100,0.00,,OVC055,0.00,VWS V14.01,2013-10-23 10:33:00,
2013-10-23 06:39:00,39.4,39.4,29.77,North,10,2.5,2.5,100,0.00,,OVC055,0.00,VWS V14.01,2013-10-23 10:39:00,
2013-10-23 06:45:00,39.1,39.1,29.77,North,10,2.5,2.5,100,0.00,,OVC055,0.00,VWS V14.01,2013-10-23 10:45:00,
2013-10-23 06:51:00,38.3,38.3,29.77,North,10,2.5,2.5,100,0.00,,OVC055,0.00,VWS V14.01,2013-10-23 10:51:00,
2013-10-23 06:57:00,37.8,37.8,29.77,North,10,2.5,2.5,100,0.00,,OVC055,0.00,VWS V14.01,2013-10-23 10:57:00,
2013-10-23 07:03:00,37.8,37.8,29.76,North,10,2.5,2.5,100,0.00,,BKN250,0.00,VWS V14.01,2013-10-23 11:03:00,
2013-10-23 07:09:00,37.7,37.7,29.77,North,10,2.5,2.5,100,0.00,,BKN250,0.00,VWS V14.01,2013-10-23 11:09:00,
2013-10-23 07:15:00,37.6,37.6,29.77,North,10,2.5,2.5,100,0.00,,BKN250,0.00,VWS V14.01,2013-10-23 11:15:00,
2013-10-23 07:21:00,37.5,37.5,29.77,North,10,2.5,2.5,100,0.00,,BKN250,0.00,VWS V14.01,2013-10-23 11:21:00,
2013-10-23 07:27:00,37.8,37.8,29.77,North,10,2.5,2.5,100,0.00,,BKN250,0.00,VWS V14.01,2013-10-23 11:27:00,
2013-10-23 07:33:00,37.9,37.9,29.77,North,10,2.5,2.5,100,0.00,,BKN250,0.00,VWS V14.01,2013-10-23 11:33:00,
2013-10-23 07:39:00,38.4,38.4,29.77,North,10,2.5,2.5,100,0.00,,BKN250,0.00,VWS V14.01,2013-10-23 11:39:00,
2013-10-23 07:45:00,38.9,38.9,29.77,North,10,2.5,2.5,100,0.00,,BKN250,0.00,VWS V14.01,2013-10-23 11:45:00,
2013-10-23 07:51:00,39.0,39.0,29.77,North,10,2.5,2.5,100,0.00,,BKN250,0.00,VWS V14.01,2013-10-23 11:51:00,
2013-10-23 07:57:00,39.6,39.6,29.77,North,10,2.5,2.5,100,0.00,,BKN250,0.00,VWS V14.01,2013-10-23 11:57:00,
2013-10-23 08:03:00,40.9,40.9,29.77,North,10,2.5,2.5,100,0.00,,SCT250,0.00,VWS V14.01,2013-10-23 12:03:00,
2013-10-23 08:09:00,41.1,41.1,29.77,North,10,2.5,2.5,100,0.00,,SCT250,0.00,VWS V14.01,2013-10-23 12:09:00,
2013-10-23 08:15:00,41.5,41.5,29.77,North,10,2.5,2.5,100,0.00,,SCT250,0.00,VWS V14.01,2013-10-23 12:15:00,
2013-10-23 08:21:00,41.6,41.6,29.77,North,10,2.5,2.5,100,0.00,,SCT250,0.00,VWS V14.01,2013-10-23 12:21:00,
2013-10-23 08:27:00,41.8,41.8,29.77,North,10,2.5,2.5,100,0.00,,SCT250,0.00,VWS V14.01,2013-10-23 12:27:00,
2013-10-23 08:33:00,42.7,42.7,29.77,North,10,2.5,2.5,100,0.00,,SCT250,0.00,VWS V14.01,2013-10-23 12:33:00,
2013-10-23 08:39:00,43.3,43.0,29.77,North,10,2.5,2.5,99,0.00,,SCT250,0.00,VWS V14.01,2013-10-23 12:39:00,
2013-10-23 08:45:00,43.8,42.6,29.77,North,10,2.5,2.5,95,0.00,,SCT250,0.00,VWS V14.01,2013-10-23 12:45:00,
2013-10-23 08:51:00,44.5,42.5,29.77,North,7,2.5,2.9,93,0.00,,SCT250,0.00,VWS V14.01,2013-10-23 12:51:00,
2013-10-23 08:57:00,45.3,42.6,29.76,NNE,31,2.5,2.5,90,0.00,,SCT250,0.00,VWS V14.01,2013-10-23 12:57:00,
2013-10-23 09:03:00,46.2,42.7,29.76,NNE,31,2.5,2.5,88,0.00,,BKN250,0.00,VWS V14.01,2013-10-23 13:03:00,
2013-10-23 09:09:00,46.9,42.3,29.76,NNE,31,2.5,2.5,84,0.00,,BKN250,0.00,VWS V14.01,2013-10-23 13:09:00,
2013-10-23 09:15:00,47.3,42.0,29.77,NNE,31,2.5,2.5,82,0.00,,BKN250,0.00,VWS V14.01,2013-10-23 13:15:00,
2013-10-23 09:21:00,47.8,42.0,29.77,NNE,31,2.5,2.5,80,0.00,,BKN250,0.00,VWS V14.01,2013-10-23 13:21:00,
2013-10-23 09:27:00,48.2,40.7,29.76,NNE,31,2.5,2.5,75,0.00,,BKN250,0.00,VWS V14.01,2013-10-23 13:27:00,
2013-10-23 09:33:00,49.1,39.5,29.76,NNE,31,2.5,2.5,69,0.00,,BKN250,0.00,VWS V14.01,2013-10-23 13:33:00,
2013-10-23 09:39:00,48.9,39.7,29.76,NNE,31,2.5,2.5,70,0.00,,BKN250,0.00,VWS V14.01,2013-10-23 13:39:00,
2013-10-23 09:45:00,49.5,40.0,29.76,NNE,31,2.5,2.5,70,0.00,,BKN250,0.00,VWS V14.01,2013-10-23 13:45:00,
2013-10-23 09:51:00,49.5,41.6,29.76,NNE,31,2.5,2.5,74,0.00,,BKN250,0.00,VWS V14.01,2013-10-23 13:51:00,
2013-10-23 09:57:00,49.7,39.5,29.75,NNE,31,2.5,2.5,68,0.00,,BKN250,0.00,VWS V14.01,2013-10-23 13:57:00,
2013-10-23 10:03:00,50.2,37.7,29.75,NNE,31,2.5,2.5,62,0.00,,BKN250,0.00,VWS V14.01,2013-10-23 14:03:00,
2013-10-23 10:09:00,50.7,37.0,29.76,NNE,31,2.5,2.5,59,0.00,,BKN250,0.00,VWS V14.01,2013-10-23 14:09:00,
2013-10-23 10:15:00,50.5,35.9,29.75,NNE,31,2.5,2.5,57,0.00,,BKN250,0.00,VWS V14.01,2013-10-23 14:15:00,
2013-10-23 10:21:00,50.2,36.4,29.75,NNE,22,2.5,3.5,59,0.00,,BKN250,0.00,VWS V14.01,2013-10-23 14:21:00,
2013-10-23 10:27:00,50.3,34.5,29.74,NE,51,2.5,2.5,54,0.00,,BKN250,0.00,VWS V14.01,2013-10-23 14:27:00,
2013-10-23 10:33:00,50.1,36.8,29.75,NE,51,2.5,2.5,60,0.00,,BKN250,0.00,VWS V14.01,2013-10-23 14:33:00,
2013-10-23 10:39:00,50.2,37.9,29.75,NE,51,2.5,2.5,62,0.00,,BKN250,0.00,VWS V14.01,2013-10-23 14:39:00,
2013-10-23 10:45:00,50.6,38.2,29.74,NE,51,2.5,2.5,62,0.00,,BKN250,0.00,VWS V14.01,2013-10-23 14:45:00,
2013-10-23 10:51:00,50.5,39.4,29.74,NE,51,2.5,2.5,66,0.00,,BKN250,0.00,VWS V14.01,2013-10-23 14:51:00,
2013-10-23 10:57:00,50.3,36.8,29.74,NNE,15,2.5,2.5,60,0.00,,BKN250,0.00,VWS V14.01,2013-10-23 14:57:00,
2013-10-23 11:03:00,50.0,37.0,29.74,NNE,15,2.5,2.5,61,0.00,,BKN200,0.00,VWS V14.01,2013-10-23 15:03:00,
2013-10-23 11:09:00,50.9,36.6,29.74,NNE,15,2.5,2.5,58,0.00,,BKN200,0.00,VWS V14.01,2013-10-23 15:09:00,
2013-10-23 11:15:00,50.6,37.2,29.74,NNE,15,2.5,2.5,60,0.00,,BKN200,0.00,VWS V14.01,2013-10-23 15:15:00,
2013-10-23 11:21:00,50.5,36.6,29.73,NNE,15,2.5,2.5,59,0.00,,BKN200,0.00,VWS V14.01,2013-10-23 15:21:00,
2013-10-23 11:27:00,50.6,35.1,29.73,NNE,15,2.5,2.5,55,0.00,,BKN200,0.00,VWS V14.01,2013-10-23 15:27:00,
2013-10-23 11:33:00,51.2,38.3,29.73,NNE,15,2.5,2.5,61,0.00,,BKN200,0.00,VWS V14.01,2013-10-23 15:33:00,
2013-10-23 11:39:00,50.8,36.0,29.73,NNE,15,2.5,2.5,57,0.00,,BKN200,0.00,VWS V14.01,2013-10-23 15:39:00,
2013-10-23 11:45:00,51.0,37.1,29.73,NNE,15,2.5,2.5,59,0.00,,BKN200,0.00,VWS V14.01,2013-10-23 15:45:00,
2013-10-23 11:51:00,50.9,36.7,29.72,NNE,15,2.5,2.5,58,0.00,,BKN200,0.00,VWS V14.01,2013-10-23 15:51:00,
2013-10-23 11:57:00,52.6,36.7,29.72,SE,127,3.8,4.7,54,0.00,,BKN200,0.00,VWS V14.01,2013-10-23 15:57:00,
2013-10-23 12:03:00,52.0,35.7,29.71,ENE,77,3.2,4.4,54,0.00,,OVC140,0.00,VWS V14.01,2013-10-23 16:03:00,
2013-10-23 12:09:00,52.1,36.5,29.71,South,190,2.5,6.1,55,0.00,,OVC140,0.00,VWS V14.01,2013-10-23 16:09:00,
2013-10-23 12:15:00,51.7,36.2,29.70,South,190,2.5,2.5,55,0.00,,OVC140,0.00,VWS V14.01,2013-10-23 16:15:00,
2013-10-23 12:21:00,52.0,35.1,29.69,South,190,2.5,2.5,52,0.00,,OVC140,0.00,VWS V14.01,2013-10-23 16:21:00,
2013-10-23 12:27:00,52.1,35.7,29.69,South,190,2.5,2.5,53,0.00,,OVC140,0.00,VWS V14.01,2013-10-23 16:27:00,
2013-10-23 12:33:00,52.0,36.5,29.69,South,190,2.5,2.5,55,0.00,,OVC140,0.00,VWS V14.01,2013-10-23 16:33:00,
2013-10-23 12:39:00,52.3,36.0,29.69,South,188,2.5,2.5,54,0.00,,OVC140,0.00,VWS V14.01,2013-10-23 16:39:00,
2013-10-23 12:45:00,52.4,35.2,29.69,South,188,2.5,2.5,52,0.00,,OVC140,0.00,VWS V14.01,2013-10-23 16:45:00,
2013-10-23 12:51:00,52.1,35.0,29.69,South,188,2.5,2.5,52,0.00,,OVC140,0.00,VWS V14.01,2013-10-23 16:51:00,
2013-10-23 12:57:00,51.2,34.6,29.68,South,188,2.5,2.5,53,0.00,,OVC140,0.00,VWS V14.01,2013-10-23 16:57:00,
2013-10-23 13:03:00,51.2,36.1,29.68,South,188,2.5,2.5,56,0.00,,OVC095,0.00,VWS V14.01,2013-10-23 17:03:00,
2013-10-23 13:09:00,51.0,36.8,29.68,South,188,2.5,2.5,58,0.00,,OVC095,0.00,VWS V14.01,2013-10-23 17:09:00,
2013-10-23 13:15:00,51.4,37.1,29.68,WNW,292,2.5,2.5,58,0.00,,OVC095,0.00,VWS V14.01,2013-10-23 17:15:00,
2013-10-23 13:21:00,51.4,35.5,29.68,NNE,15,2.5,3.9,54,0.00,,OVC095,0.00,VWS V14.01,2013-10-23 17:21:00,
2013-10-23 13:27:00,51.6,36.8,29.68,NNE,15,2.5,2.5,57,0.00,,OVC095,0.00,VWS V14.01,2013-10-23 17:27:00,
2013-10-23 13:33:00,51.3,38.6,29.67,NNE,15,2.5,2.5,62,0.00,,OVC095,0.00,VWS V14.01,2013-10-23 17:33:00,
2013-10-23 13:39:00,50.5,37.5,29.67,NNE,15,2.5,2.5,61,0.00,,OVC095,0.00,VWS V14.01,2013-10-23 17:39:00,
2013-10-23 13:45:00,50.7,38.4,29.66,NNE,15,2.5,2.5,63,0.00,,OVC095,0.00,VWS V14.01,2013-10-23 17:45:00,
2013-10-23 13:51:00,51.2,39.0,29.66,NNE,15,2.5,2.5,63,0.00,,OVC095,0.00,VWS V14.01,2013-10-23 17:51:00,
2013-10-23 13:57:00,51.1,38.2,29.65,NNE,15,2.5,2.5,61,0.00,,OVC095,0.00,VWS V14.01,2013-10-23 17:57:00,
2013-10-23 14:03:00,50.9,38.2,29.64,NNE,13,2.5,2.5,62,0.00,,OVC090,0.00,VWS V14.01,2013-10-23 18:03:00,
2013-10-23 14:09:00,51.3,38.5,29.64,NNE,13,2.5,2.5,62,0.00,,OVC090,0.00,VWS V14.01,2013-10-23 18:09:00,
2013-10-23 14:15:00,51.2,39.0,29.64,SSE,155,2.5,2.5,63,0.00,,OVC090,0.00,VWS V14.01,2013-10-23 18:15:00,
2013-10-23 14:21:00,51.4,39.1,29.63,SSW,205,2.5,3.7,63,0.00,,OVC090,0.00,VWS V14.01,2013-10-23 18:21:00,
2013-10-23 14:27:00,51.1,37.2,29.63,North,357,2.5,2.5,59,0.00,,OVC090,0.00,VWS V14.01,2013-10-23 18:27:00,
2013-10-23 14:33:00,51.2,38.3,29.62,NE,56,2.5,2.5,61,0.00,,OVC090,0.00,VWS V14.01,2013-10-23 18:33:00,
2013-10-23 14:39:00,50.9,37.9,29.63,NNE,14,2.5,4.9,61,0.00,,OVC090,0.00,VWS V14.01,2013-10-23 18:39:00,
2013-10-23 14:45:00,50.4,37.7,29.63,NE,35,2.5,5.0,62,0.00,,OVC090,0.00,VWS V14.01,2013-10-23 18:45:00,
2013-10-23 14:51:00,50.3,37.1,29.63,North,8,2.5,2.5,60,0.00,,OVC090,0.00,VWS V14.01,2013-10-23 18:51:00,
2013-10-23 14:57:00,50.3,37.1,29.62,North,8,2.5,2.5,60,0.00,,OVC090,0.00,VWS V14.01,2013-10-23 18:57:00,
2013-10-23 15:03:00,50.3,37.2,29.62,North,8,2.5,2.5,61,0.00,,BKN090,0.00,VWS V14.01,2013-10-23 19:03:00,
2013-10-23 15:09:00,50.6,37.7,29.61,North,8,2.5,2.5,61,0.00,,BKN090,0.00,VWS V14.01,2013-10-23 19:09:00,
2013-10-23 15:15:00,50.7,37.8,29.61,North,8,2.5,2.5,61,0.00,,BKN090,0.00,VWS V14.01,2013-10-23 19:15:00,
2013-10-23 15:21:00,50.4,37.1,29.61,North,8,2.5,2.5,60,0.00,,BKN090,0.00,VWS V14.01,2013-10-23 19:21:00,
2013-10-23 15:27:00,50.3,37.8,29.61,North,8,2.5,2.5,62,0.00,,BKN090,0.00,VWS V14.01,2013-10-23 19:27:00,
2013-10-23 15:33:00,50.0,36.8,29.61,North,8,2.5,2.5,60,0.00,,BKN090,0.00,VWS V14.01,2013-10-23 19:33:00,
2013-10-23 15:39:00,49.9,37.3,29.61,North,8,2.5,2.5,62,0.00,,BKN090,0.00,VWS V14.01,2013-10-23 19:39:00,
2013-10-23 15:45:00,49.7,35.6,29.62,NE,38,2.5,3.4,58,0.00,,BKN090,0.00,VWS V14.01,2013-10-23 19:45:00,
2013-10-23 15:51:00,49.6,37.1,29.61,NE,38,2.5,2.5,62,0.00,,BKN090,0.00,VWS V14.01,2013-10-23 19:51:00,
2013-10-23 15:57:00,49.6,36.3,29.61,NE,38,2.5,2.5,60,0.00,,BKN090,0.00,VWS V14.01,2013-10-23 19:57:00,
2013-10-23 16:03:00,49.1,37.1,29.61,NE,38,2.5,2.5,63,0.00,,BKN100,0.00,VWS V14.01,2013-10-23 20:03:00,
2013-10-23 16:09:00,48.7,39.5,29.62,NE,38,2.5,2.5,70,0.00,,BKN100,0.00,VWS V14.01,2013-10-23 20:09:00,
2013-10-23 16:15:00,48.1,43.8,29.62,NE,38,2.5,2.5,85,0.00,,BKN100,0.00,VWS V14.01,2013-10-23 20:15:00,
2013-10-23 16:21:00,47.8,45.0,29.62,NE,38,2.5,2.5,90,0.00,,BKN100,0.00,VWS V14.01,2013-10-23 20:21:00,
2013-10-23 16:27:00,47.7,45.5,29.62,NE,38,2.5,2.5,92,0.00,,BKN100,0.00,VWS V14.01,2013-10-23 20:27:00,
2013-10-23 16:33:00,47.6,45.9,29.62,NE,38,2.5,2.5,94,0.00,,BKN100,0.00,VWS V14.01,2013-10-23 20:33:00,
2013-10-23 16:39:00,47.5,43.9,29.61,SW,215,2.5,2.5,87,0.00,,BKN100,0.00,VWS V14.01,2013-10-23 20:39:00,
2013-10-23 16:45:00,47.5,43.7,29.61,SW,215,2.5,2.5,86,0.00,,BKN100,0.00,VWS V14.01,2013-10-23 20:45:00,
2013-10-23 16:51:00,47.3,45.4,29.62,SW,215,2.5,2.5,93,0.00,,BKN100,0.00,VWS V14.01,2013-10-23 20:51:00,
2013-10-23 16:57:00,46.8,45.2,29.62,SW,215,2.5,2.5,94,0.00,,BKN100,0.00,VWS V14.01,2013-10-23 20:57:00,
2013-10-23 17:03:00,46.4,43.6,29.62,SW,218,2.5,4.9,90,0.00,,BKN100,0.00,VWS V14.01,2013-10-23 21:03:00,
2013-10-23 17:09:00,46.5,44.7,29.62,SW,218,2.5,2.5,93,0.00,,BKN100,0.00,VWS V14.01,2013-10-23 21:09:00,
2013-10-23 17:15:00,46.4,45.3,29.62,SW,218,2.5,2.5,96,0.00,,BKN100,0.00,VWS V14.01,2013-10-23 21:15:00,
2013-10-23 17:21:00,46.6,45.9,29.62,SW,218,2.5,2.5,97,0.00,,BKN100,0.00,VWS V14.01,2013-10-23 21:21:00,
2013-10-23 17:27:00,46.3,45.4,29.61,SW,218,2.5,2.5,97,0.00,,BKN100,0.00,VWS V14.01,2013-10-23 21:27:00,
2013-10-23 17:33:00,46.1,45.5,29.62,SSE,159,4.3,4.7,98,0.00,,BKN100,0.00,VWS V14.01,2013-10-23 21:33:00,
2013-10-23 17:39:00,46.0,45.2,29.62,South,173,2.5,2.5,97,0.00,,BKN100,0.00,VWS V14.01,2013-10-23 21:39:00,
2013-10-23 17:45:00,46.0,45.4,29.62,South,173,2.5,2.5,98,0.00,,BKN100,0.00,VWS V14.01,2013-10-23 21:45:00,
2013-10-23 17:51:00,45.7,44.9,29.62,South,173,2.5,2.5,97,0.00,,BKN100,0.00,VWS V14.01,2013-10-23 21:51:00,
2013-10-23 17:57:00,45.6,44.6,29.62,South,173,2.5,2.5,96,0.00,,BKN100,0.00,VWS V14.01,2013-10-23 21:57:00,
2013-10-23 18:03:00,45.8,45.1,29.62,South,173,2.5,2.5,98,0.00,,BKN100,0.00,VWS V14.01,2013-10-23 22:03:00,
2013-10-23 18:09:00,46.0,44.8,29.62,SSW,194,4.1,4.7,96,0.00,,BKN100,0.00,VWS V14.01,2013-10-23 22:09:00,
2013-10-23 18:15:00,46.3,43.4,29.61,South,191,2.5,4.9,89,0.00,,BKN100,0.00,VWS V14.01,2013-10-23 22:15:00,
2013-10-23 18:21:00,46.2,42.2,29.61,SSW,194,2.5,2.5,86,0.00,,BKN100,0.00,VWS V14.01,2013-10-23 22:21:00,
2013-10-23 18:27:00,45.9,43.1,29.62,SSW,194,2.5,2.5,90,0.00,,BKN100,0.00,VWS V14.01,2013-10-23 22:27:00,
2013-10-23 18:33:00,45.6,44.2,29.62,SSW,194,2.5,2.5,95,0.00,,BKN100,0.00,VWS V14.01,2013-10-23 22:33:00,
2013-10-23 18:39:00,45.7,44.8,29.62,SSW,194,2.5,2.5,97,0.00,,BKN100,0.00,VWS V14.01,2013-10-23 22:39:00,
2013-10-23 18:45:00,45.3,44.6,29.62,SSW,194,2.5,2.5,97,0.00,,BKN100,0.00,VWS V14.01,2013-10-23 22:45:00,
2013-10-23 18:51:00,45.0,44.4,29.63,SSW,194,2.5,2.5,98,0.00,,BKN100,0.00,VWS V14.01,2013-10-23 22:51:00,
2013-10-23 18:57:00,44.9,44.1,29.64,SSW,194,2.5,2.5,97,0.00,,BKN100,0.00,VWS V14.01,2013-10-23 22:57:00,
2013-10-23 19:03:00,45.2,44.6,29.64,SW,232,2.5,2.5,98,0.00,,BKN080,0.00,VWS V14.01,2013-10-23 23:03:00,
2013-10-23 19:09:00,45.1,44.5,29.64,SW,232,2.5,2.5,98,0.00,,BKN080,0.00,VWS V14.01,2013-10-23 23:09:00,
2013-10-23 19:15:00,45.1,44.3,29.64,SW,232,2.5,2.5,97,0.00,,BKN080,0.00,VWS V14.01,2013-10-23 23:15:00,
2013-10-23 19:21:00,45.4,42.3,29.64,South,188,2.9,3.6,89,0.00,,BKN080,0.00,VWS V14.01,2013-10-23 23:21:00,
2013-10-23 19:27:00,45.7,39.6,29.63,SW,235,2.9,4.6,79,0.00,,BKN080,0.00,VWS V14.01,2013-10-23 23:27:00,
2013-10-23 19:33:00,45.6,42.4,29.63,South,173,2.5,2.5,88,0.00,,BKN080,0.00,VWS V14.01,2013-10-23 23:33:00,
2013-10-23 19:39:00,45.1,42.7,29.63,South,173,2.5,2.5,91,0.00,,BKN080,0.00,VWS V14.01,2013-10-23 23:39:00,
2013-10-23 19:45:00,45.2,43.1,29.63,South,173,2.5,2.5,92,0.00,,BKN080,0.00,VWS V14.01,2013-10-23 23:45:00,
2013-10-23 19:51:00,45.7,41.0,29.63,SSW,198,2.5,4.7,84,0.00,,BKN080,0.00,VWS V14.01,2013-10-23 23:51:00,
2013-10-23 19:57:00,45.7,41.8,29.62,SSW,198,2.5,2.5,86,0.00,,BKN080,0.00,VWS V14.01,2013-10-23 23:57:00,
2013-10-23 20:03:00,45.6,42.7,29.63,SSW,198,2.5,2.5,90,0.00,,BKN080,0.00,VWS V14.01,2013-10-24 00:03:00,
2013-10-23 20:09:00,45.4,43.2,29.62,SSW,198,2.5,2.5,92,0.00,,BKN080,0.00,VWS V14.01,2013-10-24 00:09:00,
2013-10-23 20:15:00,45.2,43.0,29.63,SSW,198,2.5,2.5,92,0.00,,BKN080,0.00,VWS V14.01,2013-10-24 00:15:00,
2013-10-23 20:21:00,44.9,42.8,29.62,SSW,198,2.5,2.5,92,0.00,,BKN080,0.00,VWS V14.01,2013-10-24 00:21:00,
2013-10-23 20:27:00,45.0,43.2,29.63,SSW,198,2.5,2.5,94,0.00,,BKN080,0.00,VWS V14.01,2013-10-24 00:27:00,
2013-10-23 20:33:00,45.0,43.2,29.63,SSW,198,2.5,2.5,94,0.00,,BKN080,0.00,VWS V14.01,2013-10-24 00:33:00,
2013-10-23 20:39:00,44.9,42.9,29.63,SSW,198,2.5,2.5,92,0.00,,BKN080,0.00,VWS V14.01,2013-10-24 00:39:00,
2013-10-23 20:45:00,44.8,41.8,29.63,SSW,198,2.5,2.5,89,0.00,,BKN080,0.00,VWS V14.01,2013-10-24 00:45:00,
2013-10-23 20:51:00,44.8,43.2,29.63,SSW,198,2.5,2.5,94,0.00,,BKN080,0.00,VWS V14.01,2013-10-24 00:51:00,
2013-10-23 20:57:00,44.6,42.8,29.63,SSW,198,2.5,2.5,93,0.00,,BKN080,0.00,VWS V14.01,2013-10-24 00:57:00,
2013-10-23 21:03:00,44.7,43.3,29.62,SSW,198,2.5,2.5,95,0.00,,BKN200,0.00,VWS V14.01,2013-10-24 01:03:00,
2013-10-23 21:09:00,44.6,43.3,29.63,SSW,198,2.5,2.5,95,0.00,,BKN200,0.00,VWS V14.01,2013-10-24 01:09:00,
2013-10-23 21:15:00,44.4,43.4,29.63,SSW,198,2.5,2.5,96,0.00,,BKN200,0.00,VWS V14.01,2013-10-24 01:15:00,
2013-10-23 21:21:00,44.2,43.3,29.63,SSW,198,2.5,2.5,97,0.00,,BKN200,0.00,VWS V14.01,2013-10-24 01:21:00,
2013-10-23 21:27:00,44.2,43.2,29.63,SSW,198,2.5,2.5,96,0.00,,BKN200,0.00,VWS V14.01,2013-10-24 01:27:00,
2013-10-23 21:33:00,44.1,43.4,29.64,SSW,198,2.5,2.5,98,0.00,,BKN200,0.00,VWS V14.01,2013-10-24 01:33:00,
2013-10-23 21:39:00,44.0,43.5,29.63,SSW,198,2.5,2.5,98,0.00,,BKN200,0.00,VWS V14.01,2013-10-24 01:39:00,
2013-10-23 21:45:00,43.9,43.3,29.63,SSW,198,2.5,2.5,98,0.00,,BKN200,0.00,VWS V14.01,2013-10-24 01:45:00,
2013-10-23 21:51:00,43.8,43.2,29.63,SSW,198,2.5,2.5,98,0.00,,BKN200,0.00,VWS V14.01,2013-10-24 01:51:00,
2013-10-23 21:57:00,43.7,42.8,29.63,SSW,198,2.5,2.5,97,0.00,,BKN200,0.00,VWS V14.01,2013-10-24 01:57:00,
2013-10-23 22:03:00,43.9,43.3,29.63,SSW,198,2.5,2.5,98,0.00,,OVC200,0.00,VWS V14.01,2013-10-24 02:03:00,
2013-10-23 22:09:00,43.7,43.2,29.63,SSW,198,2.5,2.5,98,0.00,,OVC200,0.00,VWS V14.01,2013-10-24 02:09:00,
2013-10-23 22:15:00,43.6,42.8,29.63,SSW,198,2.5,2.5,97,0.00,,OVC200,0.00,VWS V14.01,2013-10-24 02:15:00,
2013-10-23 22:21:00,43.4,42.7,29.63,SSW,198,2.5,2.5,97,0.00,,OVC200,0.00,VWS V14.01,2013-10-24 02:21:00,
2013-10-23 22:27:00,43.6,42.7,29.63,SSW,198,2.5,2.5,97,0.00,,OVC200,0.00,VWS V14.01,2013-10-24 02:27:00,
2013-10-23 22:33:00,43.8,42.8,29.63,SSW,198,2.5,2.5,96,0.00,,OVC200,0.00,VWS V14.01,2013-10-24 02:33:00,
2013-10-23 22:39:00,43.7,42.6,29.63,SSW,198,2.5,2.5,96,0.00,,OVC200,0.00,VWS V14.01,2013-10-24 02:39:00,
2013-10-23 22:45:00,43.9,42.7,29.63,SSW,198,2.5,2.5,95,0.00,,OVC200,0.00,VWS V14.01,2013-10-24 02:45:00,
2013-10-23 22:51:00,43.9,42.9,29.63,SSW,198,2.5,2.5,96,0.00,,OVC200,0.00,VWS V14.01,2013-10-24 02:51:00,
2013-10-23 22:57:00,43.8,42.5,29.63,WSW,250,2.5,2.5,95,0.00,,OVC200,0.00,VWS V14.01,2013-10-24 02:57:00,
2013-10-23 23:03:00,43.6,42.5,29.63,WSW,242,2.5,4.2,96,0.00,,OVC200,0.00,VWS V14.01,2013-10-24 03:03:00,
2013-10-23 23:09:00,43.6,42.5,29.63,NW,316,2.5,4.1,96,0.00,,OVC120,0.00,VWS V14.01,2013-10-24 03:09:00,
2013-10-23 23:15:00,43.6,42.5,29.63,WSW,257,2.5,3.1,96,0.00,,OVC120,0.00,VWS V14.01,2013-10-24 03:15:00,
2013-10-23 23:21:00,43.5,42.4,29.63,WSW,257,2.5,2.5,96,0.00,,OVC120,0.00,VWS V14.01,2013-10-24 03:21:00,
2013-10-23 23:27:00,43.5,42.2,29.63,WSW,240,2.5,2.5,95,0.00,,OVC120,0.00,VWS V14.01,2013-10-24 03:27:00,
2013-10-23 23:33:00,43.5,42.4,29.63,WSW,240,2.5,2.5,96,0.00,,OVC120,0.00,VWS V14.01,2013-10-24 03:33:00,
2013-10-23 23:39:00,43.4,42.2,29.63,WSW,240,2.5,2.5,96,0.00,,OVC120,0.00,VWS V14.01,2013-10-24 03:39:00,
2013-10-23 23:45:00,43.5,42.1,29.63,WSW,240,2.5,2.5,95,0.00,,OVC120,0.00,VWS V14.01,2013-10-24 03:45:00,
2013-10-23 23:51:00,43.4,42.2,29.63,WSW,240,2.5,2.5,96,0.00,,OVC120,0.00,VWS V14.01,2013-10-24 03:51:00,